createdAt,value
2023-04-12T00:03:39.424Z,99667.67
2023-04-12T00:08:42.824Z,99668.85
2023-04-12T00:13:44.321Z,99658.36
2023-04-12T00:18:45.841Z,99655.48
2023-04-12T00:23:47.617Z,99652.77
2023-04-12T00:28:49.112Z,99655.36
2023-04-12T00:33:50.626Z,99655.80
2023-04-12T00:38:52.164Z,99654.36
2023-04-12T00:43:53.906Z,99652.45
2023-04-12T00:48:57.084Z,99657.70
2023-04-12T00:54:00.049Z,99660.30
2023-04-12T00:59:02.189Z,99653.98
2023-04-12T01:04:04.752Z,99645.77
2023-04-12T01:09:34.433Z,99644.23
2023-04-12T01:14:44.441Z,99657.81
2023-04-12T01:20:13.847Z,99656.09
2023-04-12T01:25:32.614Z,99660.20
2023-04-12T01:30:34.870Z,99661.89
2023-04-12T01:35:37.966Z,99667.37
2023-04-12T01:40:42.511Z,99669.19
2023-04-12T01:45:44.236Z,99671.64
2023-04-12T01:51:10.706Z,99664.00
2023-04-12T01:56:13.096Z,99657.63
2023-04-12T02:01:16.140Z,99651.80
2023-04-12T02:06:22.931Z,99648.55
2023-04-12T02:11:24.648Z,99643.89
2023-04-12T02:16:29.489Z,99649.00
2023-04-12T02:21:42.867Z,99660.13
2023-04-12T02:26:44.352Z,99662.06
2023-04-12T02:31:46.483Z,99662.98
2023-04-12T02:36:49.303Z,99656.69
2023-04-12T02:41:51.057Z,99649.95
2023-04-12T02:46:52.591Z,99656.39
2023-04-12T02:51:54.065Z,99655.02
2023-04-12T02:56:55.831Z,99663.23
2023-04-12T03:01:57.466Z,99667.80
2023-04-12T03:06:59.273Z,99667.38
2023-04-12T03:12:02.130Z,99662.73
2023-04-12T03:17:03.616Z,99659.11
2023-04-12T03:22:06.194Z,99663.95
2023-04-12T03:27:08.360Z,99665.54
2023-04-12T03:32:09.882Z,99662.49
2023-04-12T03:37:11.512Z,99670.95
2023-04-12T03:42:25.487Z,99674.55
2023-04-12T03:47:33.780Z,99676.39
2023-04-12T03:52:35.845Z,99682.59
2023-04-12T03:57:37.436Z,99690.76
2023-04-12T04:02:39.190Z,99683.15
2023-04-12T04:07:40.796Z,99681.35
2023-04-12T04:12:42.327Z,99681.41
2023-04-12T04:17:44.821Z,99686.98
2023-04-12T04:22:49.984Z,99686.03
2023-04-12T04:27:52.091Z,99690.88
2023-04-12T04:32:53.726Z,99698.64
2023-04-12T04:37:55.728Z,99702.14
2023-04-12T04:42:57.887Z,99705.09
2023-04-12T04:47:59.472Z,99706.86
2023-04-12T04:53:01.080Z,99706.56
2023-04-12T04:58:02.573Z,99707.64
2023-04-12T05:03:04.340Z,99711.98
2023-04-12T05:08:06.216Z,99711.81
2023-04-12T05:13:07.701Z,99716.05
2023-04-12T05:18:09.219Z,99717.48
2023-04-12T05:23:10.952Z,99717.45
2023-04-12T05:28:14.387Z,99714.55
2023-04-12T05:33:16.025Z,99718.92
2023-04-12T05:38:17.607Z,99717.13
2023-04-12T05:43:19.167Z,99715.59
2023-04-12T05:48:21.647Z,99714.66
2023-04-12T05:53:23.152Z,99722.80
2023-04-12T05:58:24.788Z,99718.91
2023-04-12T06:03:26.784Z,99720.55
2023-04-12T06:08:29.496Z,99724.42
2023-04-12T06:13:31.221Z,99728.60
2023-04-12T06:18:33.216Z,99721.56
2023-04-12T06:23:34.741Z,99720.66
2023-04-12T06:28:36.443Z,99724.09
2023-04-12T06:33:38.017Z,99724.20
2023-04-12T06:38:39.618Z,99727.24
2023-04-12T06:43:41.156Z,99729.80
2023-04-12T06:48:42.648Z,99730.44
2023-04-12T06:53:44.323Z,99723.48
2023-04-12T06:58:46.058Z,99720.48
2023-04-12T07:03:47.678Z,99730.05
2023-04-12T07:08:49.695Z,99736.38
2023-04-12T07:13:51.626Z,99740.77
2023-04-12T07:18:53.353Z,99743.38
2023-04-12T07:23:55.873Z,99742.30
2023-04-12T07:28:57.800Z,99739.52
2023-04-12T07:33:59.693Z,99744.63
2023-04-12T07:39:01.353Z,99745.09
2023-04-12T07:44:02.841Z,99741.17
2023-04-12T07:49:04.493Z,99758.38
2023-04-12T07:54:06.364Z,99776.14
2023-04-12T07:59:08.039Z,99778.31
2023-04-12T08:04:09.598Z,99774.10
2023-04-12T08:09:11.254Z,99756.27
2023-04-12T08:14:13.331Z,99738.99
2023-04-12T08:19:14.850Z,99720.02
2023-04-12T08:24:16.327Z,99715.06
2023-04-12T08:29:18.375Z,99712.08
2023-04-12T08:34:22.356Z,99708.25
2023-04-12T08:39:23.948Z,99702.09
2023-04-12T08:44:36.610Z,99715.44
2023-04-12T08:49:38.200Z,99728.10
2023-04-12T08:54:39.686Z,99727.92
2023-04-12T08:59:43.696Z,99727.29
2023-04-12T09:04:50.437Z,99734.64
2023-04-12T09:09:52.130Z,99741.09
2023-04-12T09:15:08.590Z,99731.19
2023-04-12T09:20:16.149Z,99728.92
2023-04-12T09:25:17.678Z,99726.41
2023-04-12T09:30:20.833Z,99727.60
2023-04-12T09:35:35.717Z,99729.54
2023-04-12T09:40:38.240Z,99727.73
2023-04-12T09:45:39.975Z,99725.16
2023-04-12T09:50:41.622Z,99725.23
2023-04-12T09:55:44.134Z,99726.98
2023-04-12T10:00:47.102Z,99721.80
2023-04-12T10:05:49.043Z,99721.63
2023-04-12T10:10:52.208Z,99720.97
2023-04-12T10:15:54.070Z,99715.83
2023-04-12T10:20:56.043Z,99709.64
2023-04-12T10:25:58.862Z,99713.91
2023-04-12T10:31:00.716Z,99713.51
2023-04-12T10:36:06.954Z,99711.13
2023-04-12T10:41:11.878Z,99713.06
2023-04-12T10:46:46.181Z,99705.77
2023-04-12T10:52:09.525Z,99695.02
2023-04-12T10:57:47.865Z,99699.52
2023-04-12T11:03:12.108Z,99700.08
2023-04-12T11:08:14.425Z,99687.82
2023-04-12T11:13:17.011Z,99683.92
2023-04-12T11:18:18.927Z,99676.24
2023-04-12T11:23:22.109Z,99677.73
2023-04-12T11:28:29.771Z,99672.42
2023-04-12T11:33:36.867Z,99673.61
2023-04-12T11:38:39.415Z,99671.02
2023-04-12T11:43:41.029Z,99657.14
2023-04-12T11:48:45.928Z,99656.77
2023-04-12T11:53:52.663Z,99650.55
2023-04-12T11:58:54.268Z,99646.41
2023-04-12T12:03:56.512Z,99637.30
2023-04-12T12:08:59.244Z,99629.13
2023-04-12T12:14:01.191Z,99623.08
2023-04-12T12:19:05.678Z,99614.11
2023-04-12T12:24:07.366Z,99614.54
2023-04-12T12:29:17.811Z,99610.34
2023-04-12T12:34:19.760Z,99602.20
2023-04-12T12:39:21.362Z,99594.30
2023-04-12T12:44:24.066Z,99592.08
2023-04-12T12:49:25.815Z,99589.13
2023-04-12T12:54:40.591Z,99581.56
2023-04-12T12:59:42.982Z,99579.09
2023-04-12T13:04:44.634Z,99569.59
2023-04-12T13:09:46.529Z,99564.44
2023-04-12T13:14:48.596Z,99558.41
2023-04-12T13:19:50.190Z,99561.13
2023-04-12T13:24:51.693Z,99563.17
2023-04-12T13:29:53.220Z,99548.81
2023-04-12T13:34:54.745Z,99544.21
2023-04-12T13:39:56.638Z,99541.77
2023-04-12T13:44:58.236Z,99536.95
2023-04-12T13:50:02.952Z,99535.82
2023-04-12T13:55:08.261Z,99527.39
2023-04-12T14:00:11.385Z,99520.75
2023-04-12T14:05:12.901Z,99518.02
2023-04-12T14:10:14.462Z,99525.42
2023-04-12T14:15:16.441Z,99523.30
2023-04-12T14:20:19.494Z,99528.63
2023-04-12T14:25:21.457Z,99526.86
2023-04-12T14:30:23.001Z,99527.81
2023-04-12T14:35:24.884Z,99527.13
2023-04-12T14:40:26.642Z,99530.10
2023-04-12T14:45:28.249Z,99528.45
2023-04-12T14:50:29.886Z,99521.49
2023-04-12T14:55:32.769Z,99521.54
2023-04-12T15:00:34.925Z,99526.79
2023-04-12T15:05:36.489Z,99525.21
2023-04-12T15:10:38.072Z,99525.55
2023-04-12T15:15:39.690Z,99528.15
2023-04-12T15:20:41.208Z,99535.94
2023-04-12T15:25:42.846Z,99531.21
2023-04-12T15:30:44.982Z,99527.34
2023-04-12T15:35:48.335Z,99527.75
2023-04-12T15:40:59.116Z,99523.56
2023-04-12T15:46:01.615Z,99516.60
2023-04-12T15:51:03.666Z,99521.08
2023-04-12T15:56:05.846Z,99518.56
2023-04-12T16:01:07.547Z,99516.02
2023-04-12T16:06:09.289Z,99512.92
2023-04-12T16:11:12.328Z,99518.36
2023-04-12T16:16:17.326Z,99515.79
2023-04-12T16:21:21.403Z,99508.77
2023-04-12T16:26:23.526Z,99507.02
2023-04-12T16:31:26.671Z,99511.23
2023-04-12T16:36:31.604Z,99510.23
2023-04-12T16:41:33.445Z,99513.05
2023-04-12T16:46:35.022Z,99513.48
2023-04-12T16:51:37.664Z,99525.55
2023-04-12T16:56:39.475Z,99527.19
2023-04-12T17:01:41.103Z,99530.39
2023-04-12T17:06:44.249Z,99526.33
2023-04-12T17:11:46.264Z,99527.61
2023-04-12T17:16:47.850Z,99526.56
2023-04-12T17:21:49.825Z,99532.11
2023-04-12T17:26:51.602Z,99532.31
2023-04-12T17:31:55.013Z,99528.77
2023-04-12T17:36:56.962Z,99528.98
2023-04-12T17:41:58.473Z,99532.75
2023-04-12T17:47:00.000Z,99535.63
2023-04-12T17:52:01.545Z,99539.27
2023-04-12T17:57:04.139Z,99541.04
2023-04-12T18:02:06.101Z,99544.73
2023-04-12T18:07:10.327Z,99549.76
2023-04-12T18:12:13.103Z,99553.90
2023-04-12T18:17:14.627Z,99557.35
2023-04-12T18:22:16.296Z,99558.71
2023-04-12T18:27:17.800Z,99561.61
2023-04-12T18:32:19.821Z,99561.69
2023-04-12T18:37:21.639Z,99567.09
2023-04-12T18:42:23.266Z,99564.60
2023-04-12T18:47:26.631Z,99575.86
2023-04-12T18:52:28.143Z,99576.63
2023-04-12T18:57:30.292Z,99573.92
2023-04-12T19:02:32.819Z,99574.54
2023-04-12T19:07:34.484Z,99571.67
2023-04-12T19:12:36.041Z,99574.52
2023-04-12T19:17:39.404Z,99575.47
2023-04-12T19:22:40.942Z,99575.55
2023-04-12T19:27:42.441Z,99569.64
2023-04-12T19:32:44.049Z,99561.40
2023-04-12T19:37:47.057Z,99555.40
2023-04-12T19:42:48.562Z,99555.98
2023-04-12T19:47:50.925Z,99550.07
2023-04-12T19:52:52.743Z,99543.76
2023-04-12T19:57:55.772Z,99537.53
2023-04-12T20:02:57.310Z,99528.02
2023-04-12T20:07:59.088Z,99522.79
2023-04-12T20:13:00.789Z,99520.14
2023-04-12T20:18:02.417Z,99513.48
2023-04-12T20:23:04.637Z,99511.03
2023-04-12T20:28:09.026Z,99511.88
2023-04-12T20:33:10.673Z,99508.39
2023-04-12T20:38:13.222Z,99512.22
2023-04-12T20:43:15.622Z,99506.48
2023-04-12T20:48:18.353Z,99500.05
2023-04-12T20:53:19.818Z,99498.10
2023-04-12T20:58:21.865Z,99495.21
2023-04-12T21:03:23.590Z,99494.75
2023-04-12T21:08:25.207Z,99497.05
2023-04-12T21:13:26.700Z,99500.49
2023-04-12T21:18:28.312Z,99495.08
2023-04-12T21:23:30.243Z,99492.30
2023-04-12T21:28:31.884Z,99489.84
2023-04-12T21:33:34.732Z,99485.74
2023-04-12T21:38:36.581Z,99492.66
2023-04-12T21:43:41.561Z,99497.84
2023-04-12T21:48:43.517Z,99491.56
2023-04-12T21:53:45.150Z,99490.56
2023-04-12T21:58:46.637Z,99491.77
2023-04-12T22:03:48.356Z,99495.14
2023-04-12T22:08:49.981Z,99494.22
2023-04-12T22:13:51.496Z,99488.59
2023-04-12T22:18:53.036Z,99486.14
2023-04-12T22:23:55.245Z,99477.71
2023-04-12T22:28:56.747Z,99473.05
2023-04-12T22:33:58.338Z,99470.45
2023-04-12T22:38:59.984Z,99463.57
2023-04-12T22:44:01.726Z,99459.90
2023-04-12T22:49:03.310Z,99450.84
2023-04-12T22:54:06.362Z,99446.83
2023-04-12T22:59:14.915Z,99449.80
2023-04-12T23:04:16.929Z,99447.41
2023-04-12T23:09:19.783Z,99441.58
2023-04-12T23:14:21.269Z,99437.77
2023-04-12T23:19:23.324Z,99431.29
2023-04-12T23:24:25.058Z,99424.98
2023-04-12T23:29:26.788Z,99419.25
2023-04-12T23:34:30.758Z,99412.64
2023-04-12T23:39:32.139Z,99408.10
2023-04-12T23:44:33.703Z,99406.10
2023-04-12T23:49:35.453Z,99398.57
2023-04-12T23:54:36.988Z,99386.36
2023-04-12T23:59:39.045Z,99379.25
